sensor_id;sensor_type;location;lat;lon;timestamp;P1;durP1;ratioP1;P2;durP2;ratioP2
19798;SDS011;10059;59.850;10.454;2023-01-08T00:00:44;17.70;;;7.43;;
19798;SDS011;10059;59.850;10.454;2023-01-08T00:03:11;13.10;;;6.30;;
19798;SDS011;10059;59.850;10.454;2023-01-08T00:05:39;12.83;;;5.73;;
19798;SDS011;10059;59.850;10.454;2023-01-08T00:08:06;13.83;;;5.70;;
19798;SDS011;10059;59.850;10.454;2023-01-08T00:10:33;11.37;;;5.07;;
19798;SDS011;10059;59.850;10.454;2023-01-08T00:13:00;12.87;;;5.80;;
19798;SDS011;10059;59.850;10.454;2023-01-08T00:15:28;11.20;;;5.13;;
19798;SDS011;10059;59.850;10.454;2023-01-08T00:17:55;14.03;;;5.73;;
19798;SDS011;10059;59.850;10.454;2023-01-08T00:20:22;11.10;;;5.10;;
19798;SDS011;10059;59.850;10.454;2023-01-08T00:22:49;13.10;;;5.40;;
19798;SDS011;10059;59.850;10.454;2023-01-08T00:25:17;11.93;;;5.23;;
19798;SDS011;10059;59.850;10.454;2023-01-08T00:27:44;14.17;;;4.97;;
19798;SDS011;10059;59.850;10.454;2023-01-08T00:30:11;12.23;;;5.20;;
19798;SDS011;10059;59.850;10.454;2023-01-08T00:32:40;9.90;;;4.50;;
19798;SDS011;10059;59.850;10.454;2023-01-08T00:35:07;10.80;;;4.50;;
19798;SDS011;10059;59.850;10.454;2023-01-08T00:37:34;12.37;;;4.80;;
19798;SDS011;10059;59.850;10.454;2023-01-08T00:40:01;12.20;;;4.57;;
19798;SDS011;10059;59.850;10.454;2023-01-08T00:42:28;9.60;;;4.40;;
19798;SDS011;10059;59.850;10.454;2023-01-08T00:44:55;10.43;;;4.97;;
19798;SDS011;10059;59.850;10.454;2023-01-08T00:47:21;8.17;;;4.20;;
19798;SDS011;10059;59.850;10.454;2023-01-08T00:49:50;10.50;;;4.47;;
19798;SDS011;10059;59.850;10.454;2023-01-08T00:52:16;12.47;;;4.77;;
19798;SDS011;10059;59.850;10.454;2023-01-08T00:54:43;9.03;;;4.40;;
19798;SDS011;10059;59.850;10.454;2023-01-08T00:57:10;12.37;;;4.97;;
19798;SDS011;10059;59.850;10.454;2023-01-08T00:59:37;9.77;;;4.07;;
19798;SDS011;10059;59.850;10.454;2023-01-08T01:02:04;9.53;;;3.97;;
19798;SDS011;10059;59.850;10.454;2023-01-08T01:04:30;12.43;;;4.90;;
19798;SDS011;10059;59.850;10.454;2023-01-08T01:06:58;10.67;;;4.70;;
19798;SDS011;10059;59.850;10.454;2023-01-08T01:09:25;10.83;;;5.13;;
19798;SDS011;10059;59.850;10.454;2023-01-08T01:11:52;14.53;;;5.87;;
19798;SDS011;10059;59.850;10.454;2023-01-08T01:14:19;12.30;;;5.50;;
19798;SDS011;10059;59.850;10.454;2023-01-08T01:16:46;17.27;;;7.97;;
19798;SDS011;10059;59.850;10.454;2023-01-08T01:19:14;18.07;;;5.53;;
19798;SDS011;10059;59.850;10.454;2023-01-08T01:21:42;21.97;;;6.07;;
19798;SDS011;10059;59.850;10.454;2023-01-08T01:24:11;14.70;;;5.33;;
19798;SDS011;10059;59.850;10.454;2023-01-08T01:26:39;26.87;;;5.60;;
19798;SDS011;10059;59.850;10.454;2023-01-08T01:29:06;22.57;;;6.37;;
19798;SDS011;10059;59.850;10.454;2023-01-08T01:31:33;28.27;;;11.00;;
19798;SDS011;10059;59.850;10.454;2023-01-08T01:34:00;20.90;;;7.87;;
19798;SDS011;10059;59.850;10.454;2023-01-08T01:36:27;20.90;;;4.97;;
19798;SDS011;10059;59.850;10.454;2023-01-08T01:38:54;18.90;;;6.57;;
19798;SDS011;10059;59.850;10.454;2023-01-08T01:41:24;16.90;;;5.80;;
19798;SDS011;10059;59.850;10.454;2023-01-08T01:43:53;14.57;;;5.90;;
19798;SDS011;10059;59.850;10.454;2023-01-08T01:46:24;9.23;;;4.10;;
19798;SDS011;10059;59.850;10.454;2023-01-08T01:48:59;20.27;;;4.73;;
19798;SDS011;10059;59.850;10.454;2023-01-08T01:51:30;12.53;;;4.10;;
19798;SDS011;10059;59.850;10.454;2023-01-08T01:53:59;13.43;;;4.57;;
19798;SDS011;10059;59.850;10.454;2023-01-08T01:56:30;19.30;;;4.00;;
19798;SDS011;10059;59.850;10.454;2023-01-08T01:58:58;27.07;;;4.57;;
19798;SDS011;10059;59.850;10.454;2023-01-08T02:01:25;27.50;;;3.97;;
19798;SDS011;10059;59.850;10.454;2023-01-08T02:03:53;27.80;;;4.50;;
19798;SDS011;10059;59.850;10.454;2023-01-08T02:06:22;13.43;;;4.10;;
19798;SDS011;10059;59.850;10.454;2023-01-08T02:08:59;13.30;;;4.23;;
19798;SDS011;10059;59.850;10.454;2023-01-08T02:11:31;9.07;;;3.97;;
19798;SDS011;10059;59.850;10.454;2023-01-08T02:14:07;8.70;;;3.60;;
19798;SDS011;10059;59.850;10.454;2023-01-08T02:16:43;12.27;;;3.70;;
19798;SDS011;10059;59.850;10.454;2023-01-08T02:19:17;13.93;;;3.83;;
19798;SDS011;10059;59.850;10.454;2023-01-08T02:21:55;10.70;;;3.90;;
19798;SDS011;10059;59.850;10.454;2023-01-08T02:24:29;10.37;;;3.97;;
19798;SDS011;10059;59.850;10.454;2023-01-08T02:27:09;8.40;;;3.90;;
19798;SDS011;10059;59.850;10.454;2023-01-08T02:29:38;8.97;;;3.77;;
19798;SDS011;10059;59.850;10.454;2023-01-08T02:32:05;8.60;;;3.97;;
19798;SDS011;10059;59.850;10.454;2023-01-08T02:34:32;8.37;;;3.93;;
19798;SDS011;10059;59.850;10.454;2023-01-08T02:36:59;10.23;;;4.00;;
19798;SDS011;10059;59.850;10.454;2023-01-08T02:39:29;8.03;;;3.53;;
19798;SDS011;10059;59.850;10.454;2023-01-08T02:42:10;8.57;;;4.23;;
19798;SDS011;10059;59.850;10.454;2023-01-08T02:44:46;8.60;;;4.40;;
19798;SDS011;10059;59.850;10.454;2023-01-08T02:47:22;8.43;;;3.80;;
19798;SDS011;10059;59.850;10.454;2023-01-08T02:49:58;9.53;;;3.83;;
19798;SDS011;10059;59.850;10.454;2023-01-08T02:52:30;10.10;;;4.53;;
19798;SDS011;10059;59.850;10.454;2023-01-08T02:54:59;10.27;;;4.47;;
19798;SDS011;10059;59.850;10.454;2023-01-08T02:57:29;8.97;;;4.77;;
19798;SDS011;10059;59.850;10.454;2023-01-08T02:59:58;9.03;;;4.17;;
19798;SDS011;10059;59.850;10.454;2023-01-08T03:02:25;7.30;;;3.47;;
19798;SDS011;10059;59.850;10.454;2023-01-08T03:04:56;7.97;;;4.20;;
19798;SDS011;10059;59.850;10.454;2023-01-08T03:07:28;7.47;;;4.13;;
19798;SDS011;10059;59.850;10.454;2023-01-08T03:09:55;7.57;;;4.30;;
19798;SDS011;10059;59.850;10.454;2023-01-08T03:12:23;8.23;;;4.00;;
19798;SDS011;10059;59.850;10.454;2023-01-08T03:14:54;6.60;;;3.53;;
19798;SDS011;10059;59.850;10.454;2023-01-08T03:17:25;7.83;;;3.83;;
19798;SDS011;10059;59.850;10.454;2023-01-08T03:19:56;7.50;;;3.80;;
19798;SDS011;10059;59.850;10.454;2023-01-08T03:22:26;6.27;;;3.37;;
19798;SDS011;10059;59.850;10.454;2023-01-08T03:24:56;6.57;;;3.03;;
19798;SDS011;10059;59.850;10.454;2023-01-08T03:27:27;6.07;;;3.70;;
19798;SDS011;10059;59.850;10.454;2023-01-08T03:29:57;7.07;;;4.30;;
19798;SDS011;10059;59.850;10.454;2023-01-08T03:32:27;7.60;;;4.07;;
19798;SDS011;10059;59.850;10.454;2023-01-08T03:34:55;7.03;;;3.57;;
19798;SDS011;10059;59.850;10.454;2023-01-08T03:37:26;9.20;;;3.70;;
19798;SDS011;10059;59.850;10.454;2023-01-08T03:39:57;8.60;;;3.90;;
19798;SDS011;10059;59.850;10.454;2023-01-08T03:42:29;8.43;;;4.57;;
19798;SDS011;10059;59.850;10.454;2023-01-08T03:44:59;13.27;;;4.10;;
19798;SDS011;10059;59.850;10.454;2023-01-08T03:47:26;13.80;;;4.30;;
19798;SDS011;10059;59.850;10.454;2023-01-08T03:49:54;9.10;;;4.60;;
19798;SDS011;10059;59.850;10.454;2023-01-08T03:52:23;22.80;;;4.47;;
19798;SDS011;10059;59.850;10.454;2023-01-08T03:54:51;17.00;;;4.10;;
19798;SDS011;10059;59.850;10.454;2023-01-08T03:57:18;6.87;;;3.80;;
19798;SDS011;10059;59.850;10.454;2023-01-08T03:59:45;24.83;;;4.77;;
19798;SDS011;10059;59.850;10.454;2023-01-08T04:02:14;12.73;;;4.20;;
19798;SDS011;10059;59.850;10.454;2023-01-08T04:04:41;7.17;;;3.80;;
19798;SDS011;10059;59.850;10.454;2023-01-08T04:07:08;6.43;;;3.53;;
19798;SDS011;10059;59.850;10.454;2023-01-08T04:09:36;7.80;;;3.90;;
19798;SDS011;10059;59.850;10.454;2023-01-08T04:12:03;8.07;;;4.00;;
19798;SDS011;10059;59.850;10.454;2023-01-08T04:14:30;6.50;;;3.50;;
19798;SDS011;10059;59.850;10.454;2023-01-08T04:16:57;6.73;;;3.80;;
19798;SDS011;10059;59.850;10.454;2023-01-08T04:19:25;6.53;;;3.40;;
19798;SDS011;10059;59.850;10.454;2023-01-08T04:21:52;5.90;;;3.40;;
19798;SDS011;10059;59.850;10.454;2023-01-08T04:24:19;5.57;;;3.33;;
19798;SDS011;10059;59.850;10.454;2023-01-08T04:26:45;4.77;;;3.10;;
19798;SDS011;10059;59.850;10.454;2023-01-08T04:29:12;6.27;;;3.50;;
19798;SDS011;10059;59.850;10.454;2023-01-08T04:31:39;7.60;;;3.53;;
19798;SDS011;10059;59.850;10.454;2023-01-08T04:34:06;9.40;;;4.53;;
19798;SDS011;10059;59.850;10.454;2023-01-08T04:36:35;7.23;;;4.00;;
19798;SDS011;10059;59.850;10.454;2023-01-08T04:39:02;29.70;;;5.97;;
19798;SDS011;10059;59.850;10.454;2023-01-08T04:41:29;39.93;;;5.53;;
19798;SDS011;10059;59.850;10.454;2023-01-08T04:43:56;117.67;;;7.87;;
19798;SDS011;10059;59.850;10.454;2023-01-08T04:46:23;409.77;;;16.87;;
19798;SDS011;10059;59.850;10.454;2023-01-08T04:48:50;245.07;;;11.17;;
19798;SDS011;10059;59.850;10.454;2023-01-08T04:51:17;76.60;;;6.90;;
19798;SDS011;10059;59.850;10.454;2023-01-08T04:53:45;404.53;;;15.30;;
19798;SDS011;10059;59.850;10.454;2023-01-08T04:56:12;563.73;;;20.10;;
19798;SDS011;10059;59.850;10.454;2023-01-08T04:58:38;380.37;;;14.23;;
19798;SDS011;10059;59.850;10.454;2023-01-08T05:01:09;394.20;;;15.00;;
19798;SDS011;10059;59.850;10.454;2023-01-08T05:03:37;306.43;;;11.37;;
19798;SDS011;10059;59.850;10.454;2023-01-08T05:06:04;340.50;;;11.87;;
19798;SDS011;10059;59.850;10.454;2023-01-08T05:08:31;386.07;;;14.37;;
19798;SDS011;10059;59.850;10.454;2023-01-08T05:11:00;186.00;;;9.83;;
19798;SDS011;10059;59.850;10.454;2023-01-08T05:13:28;225.33;;;11.07;;
19798;SDS011;10059;59.850;10.454;2023-01-08T05:15:57;130.43;;;10.37;;
19798;SDS011;10059;59.850;10.454;2023-01-08T05:18:25;64.43;;;7.77;;
19798;SDS011;10059;59.850;10.454;2023-01-08T05:20:52;23.37;;;7.77;;
19798;SDS011;10059;59.850;10.454;2023-01-08T05:23:18;20.57;;;7.93;;
19798;SDS011;10059;59.850;10.454;2023-01-08T05:25:45;21.87;;;8.57;;
19798;SDS011;10059;59.850;10.454;2023-01-08T05:28:13;13.37;;;7.87;;
19798;SDS011;10059;59.850;10.454;2023-01-08T05:30:40;17.10;;;7.67;;
19798;SDS011;10059;59.850;10.454;2023-01-08T05:33:07;14.57;;;7.47;;
19798;SDS011;10059;59.850;10.454;2023-01-08T05:35:34;13.30;;;7.77;;
19798;SDS011;10059;59.850;10.454;2023-01-08T05:38:03;13.30;;;6.43;;
19798;SDS011;10059;59.850;10.454;2023-01-08T05:40:30;12.40;;;6.60;;
19798;SDS011;10059;59.850;10.454;2023-01-08T05:42:57;15.97;;;6.37;;
19798;SDS011;10059;59.850;10.454;2023-01-08T05:45:25;11.80;;;6.70;;
19798;SDS011;10059;59.850;10.454;2023-01-08T05:47:52;13.47;;;6.67;;
19798;SDS011;10059;59.850;10.454;2023-01-08T05:50:19;14.23;;;5.53;;
19798;SDS011;10059;59.850;10.454;2023-01-08T05:52:46;10.10;;;5.87;;
19798;SDS011;10059;59.850;10.454;2023-01-08T05:55:13;8.73;;;5.13;;
19798;SDS011;10059;59.850;10.454;2023-01-08T05:57:40;11.33;;;5.43;;
19798;SDS011;10059;59.850;10.454;2023-01-08T06:00:07;10.63;;;5.77;;
19798;SDS011;10059;59.850;10.454;2023-01-08T06:02:36;10.33;;;5.60;;
19798;SDS011;10059;59.850;10.454;2023-01-08T06:05:04;9.53;;;5.43;;
19798;SDS011;10059;59.850;10.454;2023-01-08T06:07:31;15.40;;;5.10;;
19798;SDS011;10059;59.850;10.454;2023-01-08T06:09:57;12.37;;;5.47;;
19798;SDS011;10059;59.850;10.454;2023-01-08T06:12:24;10.97;;;5.33;;
19798;SDS011;10059;59.850;10.454;2023-01-08T06:14:51;14.90;;;5.57;;
19798;SDS011;10059;59.850;10.454;2023-01-08T06:17:18;10.40;;;5.70;;
19798;SDS011;10059;59.850;10.454;2023-01-08T06:19:46;10.90;;;5.60;;
19798;SDS011;10059;59.850;10.454;2023-01-08T06:22:13;15.83;;;5.60;;
19798;SDS011;10059;59.850;10.454;2023-01-08T06:24:40;11.93;;;5.63;;
19798;SDS011;10059;59.850;10.454;2023-01-08T06:27:06;10.73;;;5.00;;
19798;SDS011;10059;59.850;10.454;2023-01-08T06:29:33;14.83;;;5.60;;
19798;SDS011;10059;59.850;10.454;2023-01-08T06:32:00;16.20;;;7.57;;
19798;SDS011;10059;59.850;10.454;2023-01-08T06:34:27;11.67;;;6.67;;
19798;SDS011;10059;59.850;10.454;2023-01-08T06:36:55;12.90;;;6.50;;
19798;SDS011;10059;59.850;10.454;2023-01-08T06:39:22;19.70;;;6.87;;
19798;SDS011;10059;59.850;10.454;2023-01-08T06:41:49;44.97;;;8.17;;
19798;SDS011;10059;59.850;10.454;2023-01-08T06:44:15;415.27;;;20.27;;
19798;SDS011;10059;59.850;10.454;2023-01-08T06:46:42;588.20;;;24.53;;
19798;SDS011;10059;59.850;10.454;2023-01-08T06:49:09;787.97;;;34.03;;
19798;SDS011;10059;59.850;10.454;2023-01-08T06:51:36;1013.47;;;43.27;;
19798;SDS011;10059;59.850;10.454;2023-01-08T06:54:04;744.43;;;34.43;;
19798;SDS011;10059;59.850;10.454;2023-01-08T06:56:31;719.00;;;31.77;;
19798;SDS011;10059;59.850;10.454;2023-01-08T06:58:58;901.67;;;36.37;;
19798;SDS011;10059;59.850;10.454;2023-01-08T07:01:25;388.83;;;17.83;;
19798;SDS011;10059;59.850;10.454;2023-01-08T07:03:52;532.53;;;24.23;;
19798;SDS011;10059;59.850;10.454;2023-01-08T07:06:19;194.80;;;14.13;;
19798;SDS011;10059;59.850;10.454;2023-01-08T07:08:47;58.43;;;9.17;;
19798;SDS011;10059;59.850;10.454;2023-01-08T07:11:16;28.50;;;9.07;;
19798;SDS011;10059;59.850;10.454;2023-01-08T07:13:43;28.13;;;10.67;;
19798;SDS011;10059;59.850;10.454;2023-01-08T07:16:10;108.77;;;12.77;;
19798;SDS011;10059;59.850;10.454;2023-01-08T07:18:38;227.17;;;16.30;;
19798;SDS011;10059;59.850;10.454;2023-01-08T07:21:06;455.33;;;22.40;;
19798;SDS011;10059;59.850;10.454;2023-01-08T07:23:33;452.83;;;24.50;;
19798;SDS011;10059;59.850;10.454;2023-01-08T07:26:02;575.30;;;34.57;;
19798;SDS011;10059;59.850;10.454;2023-01-08T07:28:31;277.10;;;19.87;;
19798;SDS011;10059;59.850;10.454;2023-01-08T07:31:01;29.50;;;11.23;;
19798;SDS011;10059;59.850;10.454;2023-01-08T07:33:29;41.83;;;14.67;;
19798;SDS011;10059;59.850;10.454;2023-01-08T07:35:56;28.87;;;13.23;;
19798;SDS011;10059;59.850;10.454;2023-01-08T07:38:23;27.93;;;11.80;;
19798;SDS011;10059;59.850;10.454;2023-01-08T07:40:49;26.73;;;11.00;;
19798;SDS011;10059;59.850;10.454;2023-01-08T07:43:16;24.87;;;11.20;;
19798;SDS011;10059;59.850;10.454;2023-01-08T07:45:45;33.80;;;12.07;;
19798;SDS011;10059;59.850;10.454;2023-01-08T07:48:11;29.57;;;11.83;;
19798;SDS011;10059;59.850;10.454;2023-01-08T07:50:40;30.80;;;12.50;;
19798;SDS011;10059;59.850;10.454;2023-01-08T07:53:07;35.30;;;12.33;;
19798;SDS011;10059;59.850;10.454;2023-01-08T07:55:35;31.93;;;11.37;;
19798;SDS011;10059;59.850;10.454;2023-01-08T07:58:06;25.90;;;11.40;;
19798;SDS011;10059;59.850;10.454;2023-01-08T08:00:34;26.23;;;11.47;;
19798;SDS011;10059;59.850;10.454;2023-01-08T08:03:03;20.40;;;8.87;;
19798;SDS011;10059;59.850;10.454;2023-01-08T08:05:31;20.23;;;7.80;;
19798;SDS011;10059;59.850;10.454;2023-01-08T08:07:58;17.77;;;7.97;;
19798;SDS011;10059;59.850;10.454;2023-01-08T08:10:25;17.33;;;6.83;;
19798;SDS011;10059;59.850;10.454;2023-01-08T08:12:52;21.33;;;7.37;;
19798;SDS011;10059;59.850;10.454;2023-01-08T08:15:19;21.67;;;7.27;;
19798;SDS011;10059;59.850;10.454;2023-01-08T08:17:46;20.67;;;7.37;;
19798;SDS011;10059;59.850;10.454;2023-01-08T08:20:15;22.70;;;9.77;;
19798;SDS011;10059;59.850;10.454;2023-01-08T08:22:42;31.17;;;10.23;;
19798;SDS011;10059;59.850;10.454;2023-01-08T08:25:09;49.23;;;23.10;;
19798;SDS011;10059;59.850;10.454;2023-01-08T08:27:39;43.80;;;23.67;;
19798;SDS011;10059;59.850;10.454;2023-01-08T08:30:06;23.40;;;11.43;;
19798;SDS011;10059;59.850;10.454;2023-01-08T08:32:34;32.00;;;11.77;;
19798;SDS011;10059;59.850;10.454;2023-01-08T08:35:01;31.20;;;12.03;;
19798;SDS011;10059;59.850;10.454;2023-01-08T08:37:29;29.97;;;10.30;;
19798;SDS011;10059;59.850;10.454;2023-01-08T08:39:56;28.37;;;10.53;;
19798;SDS011;10059;59.850;10.454;2023-01-08T08:42:23;67.10;;;41.20;;
19798;SDS011;10059;59.850;10.454;2023-01-08T08:44:50;28.43;;;10.83;;
19798;SDS011;10059;59.850;10.454;2023-01-08T08:47:16;27.20;;;9.27;;
19798;SDS011;10059;59.850;10.454;2023-01-08T08:49:43;27.20;;;9.27;;
19798;SDS011;10059;59.850;10.454;2023-01-08T08:52:10;25.47;;;10.70;;
19798;SDS011;10059;59.850;10.454;2023-01-08T08:54:38;24.57;;;9.53;;
19798;SDS011;10059;59.850;10.454;2023-01-08T08:57:05;22.87;;;10.00;;
19798;SDS011;10059;59.850;10.454;2023-01-08T08:59:33;31.60;;;12.37;;
19798;SDS011;10059;59.850;10.454;2023-01-08T09:02:00;21.63;;;8.80;;
19798;SDS011;10059;59.850;10.454;2023-01-08T09:04:28;22.40;;;8.50;;
19798;SDS011;10059;59.850;10.454;2023-01-08T09:06:56;20.90;;;8.77;;
19798;SDS011;10059;59.850;10.454;2023-01-08T09:09:23;20.33;;;8.87;;
19798;SDS011;10059;59.850;10.454;2023-01-08T09:11:51;24.17;;;9.60;;
19798;SDS011;10059;59.850;10.454;2023-01-08T09:14:18;30.20;;;14.37;;
19798;SDS011;10059;59.850;10.454;2023-01-08T09:16:45;35.63;;;18.57;;
19798;SDS011;10059;59.850;10.454;2023-01-08T09:19:12;30.27;;;13.00;;
19798;SDS011;10059;59.850;10.454;2023-01-08T09:21:39;28.10;;;13.17;;
19798;SDS011;10059;59.850;10.454;2023-01-08T09:24:06;21.80;;;7.93;;
19798;SDS011;10059;59.850;10.454;2023-01-08T09:26:33;20.53;;;6.90;;
19798;SDS011;10059;59.850;10.454;2023-01-08T09:29:02;21.93;;;7.17;;
19798;SDS011;10059;59.850;10.454;2023-01-08T09:31:29;17.03;;;6.60;;
19798;SDS011;10059;59.850;10.454;2023-01-08T09:33:56;19.80;;;6.80;;
19798;SDS011;10059;59.850;10.454;2023-01-08T09:36:22;25.37;;;11.47;;
19798;SDS011;10059;59.850;10.454;2023-01-08T09:38:49;40.00;;;15.03;;
19798;SDS011;10059;59.850;10.454;2023-01-08T09:41:17;27.20;;;11.20;;
19798;SDS011;10059;59.850;10.454;2023-01-08T09:43:47;25.70;;;9.50;;
19798;SDS011;10059;59.850;10.454;2023-01-08T09:46:19;31.17;;;10.03;;
19798;SDS011;10059;59.850;10.454;2023-01-08T09:48:49;24.60;;;10.73;;
19798;SDS011;10059;59.850;10.454;2023-01-08T09:51:18;25.33;;;9.90;;
19798;SDS011;10059;59.850;10.454;2023-01-08T09:53:46;26.30;;;8.63;;
19798;SDS011;10059;59.850;10.454;2023-01-08T09:56:18;21.10;;;7.97;;
19798;SDS011;10059;59.850;10.454;2023-01-08T09:58:46;23.53;;;7.00;;
19798;SDS011;10059;59.850;10.454;2023-01-08T10:01:16;16.07;;;6.93;;
19798;SDS011;10059;59.850;10.454;2023-01-08T10:03:48;20.87;;;6.50;;
19798;SDS011;10059;59.850;10.454;2023-01-08T10:06:18;26.40;;;7.20;;
19798;SDS011;10059;59.850;10.454;2023-01-08T10:08:46;17.00;;;6.47;;
19798;SDS011;10059;59.850;10.454;2023-01-08T10:11:15;20.53;;;6.63;;
19798;SDS011;10059;59.850;10.454;2023-01-08T10:13:45;21.97;;;7.00;;
19798;SDS011;10059;59.850;10.454;2023-01-08T10:16:16;16.90;;;6.53;;
19798;SDS011;10059;59.850;10.454;2023-01-08T10:18:51;15.83;;;5.63;;
19798;SDS011;10059;59.850;10.454;2023-01-08T10:21:18;20.63;;;7.00;;
19798;SDS011;10059;59.850;10.454;2023-01-08T10:23:48;21.50;;;9.10;;
19798;SDS011;10059;59.850;10.454;2023-01-08T10:26:27;22.33;;;8.83;;
19798;SDS011;10059;59.850;10.454;2023-01-08T10:29:04;19.77;;;8.67;;
19798;SDS011;10059;59.850;10.454;2023-01-08T10:31:33;22.40;;;9.37;;
19798;SDS011;10059;59.850;10.454;2023-01-08T10:34:08;19.83;;;7.73;;
19798;SDS011;10059;59.850;10.454;2023-01-08T10:36:38;24.27;;;9.17;;
19798;SDS011;10059;59.850;10.454;2023-01-08T10:39:06;22.37;;;8.60;;
19798;SDS011;10059;59.850;10.454;2023-01-08T10:41:45;26.13;;;8.63;;
19798;SDS011;10059;59.850;10.454;2023-01-08T10:44:13;23.70;;;8.00;;
19798;SDS011;10059;59.850;10.454;2023-01-08T10:46:42;25.83;;;6.70;;
19798;SDS011;10059;59.850;10.454;2023-01-08T10:49:14;25.33;;;8.67;;
19798;SDS011;10059;59.850;10.454;2023-01-08T10:51:47;19.07;;;8.33;;
19798;SDS011;10059;59.850;10.454;2023-01-08T10:54:22;23.57;;;8.00;;
19798;SDS011;10059;59.850;10.454;2023-01-08T10:56:58;24.37;;;7.57;;
19798;SDS011;10059;59.850;10.454;2023-01-08T10:59:25;30.43;;;7.07;;
19798;SDS011;10059;59.850;10.454;2023-01-08T11:01:53;28.03;;;6.80;;
19798;SDS011;10059;59.850;10.454;2023-01-08T11:04:25;22.03;;;7.47;;
19798;SDS011;10059;59.850;10.454;2023-01-08T11:06:54;30.13;;;8.47;;
19798;SDS011;10059;59.850;10.454;2023-01-08T11:09:25;26.73;;;7.77;;
19798;SDS011;10059;59.850;10.454;2023-01-08T11:11:54;29.30;;;7.60;;
19798;SDS011;10059;59.850;10.454;2023-01-08T11:14:22;29.50;;;8.27;;
19798;SDS011;10059;59.850;10.454;2023-01-08T11:16:53;24.93;;;7.80;;
19798;SDS011;10059;59.850;10.454;2023-01-08T11:19:23;28.43;;;7.00;;
19798;SDS011;10059;59.850;10.454;2023-01-08T11:21:58;31.03;;;8.17;;
19798;SDS011;10059;59.850;10.454;2023-01-08T11:24:27;33.13;;;7.93;;
19798;SDS011;10059;59.850;10.454;2023-01-08T11:26:58;36.03;;;7.43;;
19798;SDS011;10059;59.850;10.454;2023-01-08T11:29:35;44.47;;;8.70;;
19798;SDS011;10059;59.850;10.454;2023-01-08T11:32:08;31.83;;;8.60;;
19798;SDS011;10059;59.850;10.454;2023-01-08T11:34:51;24.00;;;7.17;;
19798;SDS011;10059;59.850;10.454;2023-01-08T11:37:22;32.03;;;7.03;;
19798;SDS011;10059;59.850;10.454;2023-01-08T11:39:51;33.07;;;7.30;;
19798;SDS011;10059;59.850;10.454;2023-01-08T11:42:22;36.77;;;6.40;;
19798;SDS011;10059;59.850;10.454;2023-01-08T11:45:03;30.23;;;6.27;;
19798;SDS011;10059;59.850;10.454;2023-01-08T11:47:43;30.10;;;6.03;;
19798;SDS011;10059;59.850;10.454;2023-01-08T11:50:23;39.20;;;9.03;;
19798;SDS011;10059;59.850;10.454;2023-01-08T11:53:06;30.90;;;6.60;;
19798;SDS011;10059;59.850;10.454;2023-01-08T11:55:42;36.43;;;9.17;;
19798;SDS011;10059;59.850;10.454;2023-01-08T11:58:17;39.63;;;10.73;;
19798;SDS011;10059;59.850;10.454;2023-01-08T12:00:55;31.67;;;5.93;;
19798;SDS011;10059;59.850;10.454;2023-01-08T12:03:28;27.60;;;6.57;;
19798;SDS011;10059;59.850;10.454;2023-01-08T12:06:03;27.20;;;6.90;;
19798;SDS011;10059;59.850;10.454;2023-01-08T12:08:39;27.93;;;6.47;;
19798;SDS011;10059;59.850;10.454;2023-01-08T12:11:15;33.33;;;5.50;;
19798;SDS011;10059;59.850;10.454;2023-01-08T12:13:54;31.03;;;6.17;;
19798;SDS011;10059;59.850;10.454;2023-01-08T12:16:44;26.07;;;6.10;;
19798;SDS011;10059;59.850;10.454;2023-01-08T12:19:26;26.47;;;4.93;;
19798;SDS011;10059;59.850;10.454;2023-01-08T12:22:09;40.10;;;5.50;;
19798;SDS011;10059;59.850;10.454;2023-01-08T12:24:59;27.03;;;4.90;;
19798;SDS011;10059;59.850;10.454;2023-01-08T12:27:44;41.07;;;6.50;;
19798;SDS011;10059;59.850;10.454;2023-01-08T12:30:19;27.73;;;5.67;;
19798;SDS011;10059;59.850;10.454;2023-01-08T12:32:53;30.33;;;5.50;;
19798;SDS011;10059;59.850;10.454;2023-01-08T12:35:24;33.87;;;5.83;;
19798;SDS011;10059;59.850;10.454;2023-01-08T12:37:58;28.10;;;5.60;;
19798;SDS011;10059;59.850;10.454;2023-01-08T12:40:31;36.03;;;6.03;;
19798;SDS011;10059;59.850;10.454;2023-01-08T12:43:01;29.30;;;5.90;;
19798;SDS011;10059;59.850;10.454;2023-01-08T12:45:34;29.43;;;6.23;;
19798;SDS011;10059;59.850;10.454;2023-01-08T12:48:05;31.37;;;6.10;;
19798;SDS011;10059;59.850;10.454;2023-01-08T12:50:35;32.33;;;6.80;;
19798;SDS011;10059;59.850;10.454;2023-01-08T12:53:13;49.97;;;6.53;;
19798;SDS011;10059;59.850;10.454;2023-01-08T12:55:49;37.27;;;6.00;;
19798;SDS011;10059;59.850;10.454;2023-01-08T12:58:23;32.90;;;8.77;;
19798;SDS011;10059;59.850;10.454;2023-01-08T13:00:58;40.03;;;10.13;;
19798;SDS011;10059;59.850;10.454;2023-01-08T13:03:31;35.03;;;8.43;;
19798;SDS011;10059;59.850;10.454;2023-01-08T13:06:08;34.20;;;9.63;;
19798;SDS011;10059;59.850;10.454;2023-01-08T13:08:39;33.07;;;8.47;;
19798;SDS011;10059;59.850;10.454;2023-01-08T13:11:09;32.97;;;7.50;;
19798;SDS011;10059;59.850;10.454;2023-01-08T13:13:37;35.63;;;7.47;;
19798;SDS011;10059;59.850;10.454;2023-01-08T13:16:17;42.30;;;7.83;;
19798;SDS011;10059;59.850;10.454;2023-01-08T13:18:52;35.77;;;7.37;;
19798;SDS011;10059;59.850;10.454;2023-01-08T13:21:26;32.10;;;6.90;;
19798;SDS011;10059;59.850;10.454;2023-01-08T13:24:01;34.67;;;6.93;;
19798;SDS011;10059;59.850;10.454;2023-01-08T13:26:30;29.67;;;6.60;;
19798;SDS011;10059;59.850;10.454;2023-01-08T13:29:06;34.00;;;6.47;;
19798;SDS011;10059;59.850;10.454;2023-01-08T13:31:48;34.50;;;8.50;;
19798;SDS011;10059;59.850;10.454;2023-01-08T13:34:17;34.27;;;7.43;;
19798;SDS011;10059;59.850;10.454;2023-01-08T13:36:53;32.13;;;9.00;;
19798;SDS011;10059;59.850;10.454;2023-01-08T13:39:23;36.50;;;9.53;;
19798;SDS011;10059;59.850;10.454;2023-01-08T13:41:59;41.77;;;12.60;;
19798;SDS011;10059;59.850;10.454;2023-01-08T13:44:31;36.10;;;11.70;;
19798;SDS011;10059;59.850;10.454;2023-01-08T13:46:59;59.27;;;23.60;;
19798;SDS011;10059;59.850;10.454;2023-01-08T13:49:29;54.27;;;16.10;;
19798;SDS011;10059;59.850;10.454;2023-01-08T13:52:00;52.33;;;20.60;;
19798;SDS011;10059;59.850;10.454;2023-01-08T13:54:30;46.93;;;14.50;;
19798;SDS011;10059;59.850;10.454;2023-01-08T13:57:01;33.60;;;11.73;;
19798;SDS011;10059;59.850;10.454;2023-01-08T13:59:36;35.17;;;9.00;;
19798;SDS011;10059;59.850;10.454;2023-01-08T14:02:20;32.37;;;8.90;;
19798;SDS011;10059;59.850;10.454;2023-01-08T14:04:50;28.43;;;7.97;;
19798;SDS011;10059;59.850;10.454;2023-01-08T14:07:18;23.93;;;6.83;;
19798;SDS011;10059;59.850;10.454;2023-01-08T14:09:46;30.93;;;8.33;;
19798;SDS011;10059;59.850;10.454;2023-01-08T14:12:14;48.53;;;13.03;;
19798;SDS011;10059;59.850;10.454;2023-01-08T14:14:45;58.57;;;15.90;;
19798;SDS011;10059;59.850;10.454;2023-01-08T14:17:15;52.03;;;13.30;;
19798;SDS011;10059;59.850;10.454;2023-01-08T14:19:43;53.57;;;11.43;;
19798;SDS011;10059;59.850;10.454;2023-01-08T14:22:13;43.87;;;12.77;;
19798;SDS011;10059;59.850;10.454;2023-01-08T14:24:44;33.33;;;11.13;;
19798;SDS011;10059;59.850;10.454;2023-01-08T14:27:20;46.93;;;16.53;;
19798;SDS011;10059;59.850;10.454;2023-01-08T14:29:48;51.80;;;17.73;;
19798;SDS011;10059;59.850;10.454;2023-01-08T14:32:16;55.93;;;18.57;;